Terminal Aerodrome Forecast
Issued by NWS Sterling, VA

Home | Current Version | Previous Version | Text Only | Print | Product List | Glossary On
Versions: 1 2 3 4 5 6 7 8 9 10 11 12 13 14 15 16 17 18 19 20 21 22 23 24 25 26
000
FTUS41 KLWX 262300
TAFIAD
TAF
KIAD 262336Z 2700/2806 01011KT 1 1/2SM -SN BR OVC008
     FM270200 36011G19KT 1SM -SN BR OVC008
     FM270800 34010KT 1 1/2SM -SN BR OVC010
     FM271400 33012G20KT P6SM OVC015
     FM271800 32013G21KT P6SM OVC025
     FM272000 32014G23KT P6SM BKN040
     FM280100 32014KT P6SM SCT050=

USA.gov is the U.S. government's official web portal to all federal, state and local government web resources and services.